createdAt,value
2022-09-20T00:01:25.021Z,80.22
2022-09-20T00:03:55.551Z,80.21
2022-09-20T00:06:28.319Z,80.80
2022-09-20T00:08:55.801Z,81.00
2022-09-20T00:11:24.426Z,80.99
2022-09-20T00:13:53.574Z,81.58
2022-09-20T00:16:24.322Z,81.79
2022-09-20T00:18:53.337Z,82.14
2022-09-20T00:21:22.842Z,82.29
2022-09-20T00:23:49.981Z,82.60
2022-09-20T00:26:16.608Z,82.21
2022-09-20T00:28:43.292Z,82.91
2022-09-20T00:31:11.563Z,83.39
2022-09-20T00:33:38.275Z,84.21
2022-09-20T00:36:04.978Z,83.66
2022-09-20T00:38:31.743Z,84.40
2022-09-20T00:40:58.305Z,83.57
2022-09-20T00:43:43.782Z,83.39
2022-09-20T00:46:22.689Z,82.99
2022-09-20T00:48:56.101Z,83.13
2022-09-20T00:51:32.523Z,83.54
2022-09-20T00:54:01.082Z,83.35
2022-09-20T00:56:38.833Z,84.25
2022-09-20T00:59:16.713Z,84.60
2022-09-20T01:01:46.461Z,84.91
2022-09-20T01:04:16.028Z,84.66
2022-09-20T01:06:46.252Z,84.75
2022-09-20T01:09:12.871Z,84.83
2022-09-20T01:11:40.996Z,86.49
2022-09-20T01:14:08.372Z,87.33
2022-09-20T01:16:37.390Z,88.40
2022-09-20T01:19:32.944Z,88.02
2022-09-20T01:22:04.262Z,88.05
2022-09-20T01:24:55.428Z,87.37
2022-09-20T01:27:34.196Z,86.83
2022-09-20T01:30:15.212Z,87.14
2022-09-20T01:33:07.859Z,86.31
2022-09-20T01:35:35.721Z,85.58
2022-09-20T01:38:22.584Z,86.21
2022-09-20T01:41:17.152Z,86.91
2022-09-20T01:44:03.110Z,87.88
2022-09-20T01:46:33.737Z,87.60
2022-09-20T01:49:26.457Z,87.29
2022-09-20T01:51:56.119Z,87.16
2022-09-20T01:54:22.644Z,87.20
2022-09-20T01:57:04.654Z,87.40
2022-09-20T02:00:12.828Z,87.91
2022-09-20T02:03:04.083Z,87.70
2022-09-20T02:05:50.236Z,87.31
2022-09-20T02:08:39.150Z,87.18
2022-09-20T02:11:12.156Z,87.69
2022-09-20T02:14:09.445Z,86.76
2022-09-20T02:16:43.474Z,86.79
2022-09-20T02:19:19.364Z,87.39
2022-09-20T02:22:10.421Z,87.02
2022-09-20T02:25:01.727Z,86.20
2022-09-20T02:27:40.695Z,85.97
2022-09-20T02:30:22.413Z,86.02
2022-09-20T02:32:54.981Z,86.12
2022-09-20T02:35:46.768Z,86.47
2022-09-20T02:38:35.187Z,85.90
2022-09-20T02:41:02.063Z,85.39
2022-09-20T02:43:48.511Z,85.48
2022-09-20T02:46:23.863Z,85.28
2022-09-20T02:49:08.174Z,85.10
2022-09-20T02:51:46.547Z,84.91
2022-09-20T02:54:45.298Z,84.88
2022-09-20T02:57:23.795Z,84.23
2022-09-20T03:00:13.745Z,84.33
2022-09-20T03:03:03.541Z,84.63
2022-09-20T03:05:33.181Z,84.71
2022-09-20T03:08:18.404Z,84.68
2022-09-20T03:10:50.404Z,84.52
2022-09-20T03:13:49.320Z,83.44
2022-09-20T03:16:27.375Z,83.00
2022-09-20T03:19:06.159Z,82.85
2022-09-20T03:21:57.144Z,83.21
2022-09-20T03:24:33.030Z,83.41
2022-09-20T03:27:24.447Z,83.46
2022-09-20T03:30:22.088Z,83.63
2022-09-20T03:33:02.205Z,83.59
2022-09-20T03:35:45.886Z,82.92
2022-09-20T03:38:22.494Z,83.03
2022-09-20T03:40:59.436Z,82.82
2022-09-20T03:43:44.663Z,82.84
2022-09-20T03:46:17.574Z,83.75
2022-09-20T03:49:12.572Z,84.13
2022-09-20T03:52:07.088Z,83.64
2022-09-20T03:54:52.442Z,82.65
2022-09-20T03:57:26.497Z,83.01
2022-09-20T03:59:56.153Z,84.10
2022-09-20T04:02:58.340Z,84.09
2022-09-20T04:05:49.558Z,84.72
2022-09-20T04:08:51.197Z,85.33
2022-09-20T04:11:25.694Z,85.33
2022-09-20T04:14:11.476Z,85.07
2022-09-20T04:16:51.247Z,84.82
2022-09-20T04:19:23.766Z,84.96
2022-09-20T04:22:01.125Z,83.84
2022-09-20T04:25:05.593Z,83.47
2022-09-20T04:27:39.154Z,83.50
2022-09-20T04:30:19.374Z,84.01
2022-09-20T04:33:01.469Z,84.23
2022-09-20T04:35:46.416Z,83.81
2022-09-20T04:38:18.197Z,83.72
2022-09-20T04:40:54.063Z,83.70
2022-09-20T04:43:35.906Z,83.16
2022-09-20T04:46:23.930Z,83.92
2022-09-20T04:49:21.202Z,83.48
2022-09-20T04:52:12.573Z,83.77
2022-09-20T04:55:00.592Z,83.70
2022-09-20T04:57:58.022Z,83.55
2022-09-20T05:00:35.045Z,82.93
2022-09-20T05:03:29.377Z,83.42
2022-09-20T05:06:33.425Z,82.77
2022-09-20T05:09:21.232Z,83.11
2022-09-20T05:12:10.431Z,82.84
2022-09-20T05:14:43.262Z,82.57
2022-09-20T05:17:38.242Z,82.39
2022-09-20T05:20:38.825Z,82.54
2022-09-20T05:23:29.832Z,84.30
2022-09-20T05:26:25.462Z,83.44
2022-09-20T05:28:55.414Z,83.08
2022-09-20T05:31:34.383Z,84.22
2022-09-20T05:34:20.135Z,84.63
2022-09-20T05:36:56.103Z,84.35
2022-09-20T05:39:38.246Z,83.93
2022-09-20T05:42:42.577Z,83.77
2022-09-20T05:45:47.800Z,83.03
2022-09-20T05:48:31.592Z,82.87
2022-09-20T05:51:04.055Z,83.05
2022-09-20T05:54:08.230Z,83.27
2022-09-20T05:56:41.998Z,82.38
2022-09-20T05:59:23.639Z,82.51
2022-09-20T06:01:53.258Z,82.61
2022-09-20T06:04:23.624Z,82.50
2022-09-20T06:06:59.747Z,82.52
2022-09-20T06:09:35.430Z,82.33
2022-09-20T06:12:27.389Z,82.63
2022-09-20T06:15:13.894Z,82.09
2022-09-20T06:18:35.033Z,82.12
2022-09-20T06:21:13.817Z,82.67
2022-09-20T06:23:40.635Z,83.02
2022-09-20T06:26:16.132Z,82.80
2022-09-20T06:28:49.989Z,83.29
2022-09-20T06:31:16.677Z,83.28
2022-09-20T06:33:50.903Z,83.22
2022-09-20T06:36:25.695Z,83.60
2022-09-20T06:39:32.348Z,83.88
2022-09-20T06:42:00.029Z,83.51
2022-09-20T06:44:26.963Z,83.78
2022-09-20T06:46:53.807Z,83.67
2022-09-20T06:49:23.068Z,83.50
2022-09-20T06:51:50.175Z,84.19
2022-09-20T06:54:20.290Z,85.27
2022-09-20T06:56:49.089Z,85.01
2022-09-20T06:59:15.662Z,85.23
2022-09-20T07:01:44.377Z,85.10
2022-09-20T07:04:11.090Z,85.84
2022-09-20T07:06:37.928Z,85.35
2022-09-20T07:09:05.365Z,85.66
2022-09-20T07:11:33.122Z,85.26
2022-09-20T07:13:59.731Z,86.02
2022-09-20T07:16:26.747Z,87.23
2022-09-20T07:18:53.564Z,87.27
2022-09-20T07:21:21.370Z,86.69
2022-09-20T07:23:48.365Z,86.38
2022-09-20T07:26:26.691Z,85.86
2022-09-20T07:28:54.157Z,84.95
2022-09-20T07:31:23.459Z,84.89
2022-09-20T07:33:50.478Z,83.38
2022-09-20T07:36:17.990Z,84.40
2022-09-20T07:38:50.217Z,83.52
2022-09-20T07:41:18.555Z,82.50
2022-09-20T07:43:46.113Z,81.82
2022-09-20T07:46:14.108Z,82.31
2022-09-20T07:48:43.120Z,82.05
2022-09-20T07:51:12.211Z,83.53
2022-09-20T07:53:40.094Z,83.56
2022-09-20T07:56:11.840Z,82.88
2022-09-20T07:58:39.276Z,80.82
2022-09-20T08:01:10.646Z,81.44
2022-09-20T08:03:37.414Z,80.54
2022-09-20T08:06:11.381Z,80.90
2022-09-20T08:08:39.972Z,81.63
2022-09-20T08:11:10.439Z,81.78
2022-09-20T08:16:29.989Z,82.34
2022-09-20T08:19:01.967Z,80.68
2022-09-20T08:21:33.852Z,81.02
2022-09-20T08:24:01.118Z,81.05
2022-09-20T08:26:29.315Z,80.51
2022-09-20T08:28:58.456Z,81.54
2022-09-20T08:31:27.674Z,82.59
2022-09-20T08:33:54.519Z,81.02
2022-09-20T08:36:25.709Z,80.95
2022-09-20T08:41:58.076Z,79.33
2022-09-20T08:44:35.029Z,78.44
2022-09-20T08:47:14.844Z,77.39
2022-09-20T08:49:46.128Z,78.93
2022-09-20T08:52:37.219Z,77.20
2022-09-20T08:55:15.768Z,77.21
2022-09-20T08:57:42.944Z,77.35
2022-09-20T09:00:19.388Z,76.54
2022-09-20T09:02:46.438Z,75.61
2022-09-20T09:05:33.277Z,77.30
2022-09-20T09:08:04.597Z,76.83
2022-09-20T09:10:42.649Z,76.99
2022-09-20T09:13:43.156Z,77.82
2022-09-20T09:16:14.965Z,76.15
2022-09-20T09:18:44.234Z,76.11
2022-09-20T09:21:20.688Z,74.90
2022-09-20T09:23:53.848Z,76.67
2022-09-20T09:26:25.290Z,75.94
2022-09-20T09:29:21.410Z,72.90
2022-09-20T09:31:50.751Z,74.66
2022-09-20T09:34:28.724Z,74.46
2022-09-20T09:36:56.293Z,72.16
2022-09-20T09:39:33.431Z,73.93
2022-09-20T09:42:00.186Z,74.23
2022-09-20T09:44:27.867Z,72.16
2022-09-20T09:46:56.444Z,72.36
2022-09-20T09:49:27.593Z,72.82
2022-09-20T09:52:02.354Z,72.46
2022-09-20T09:54:33.213Z,72.81
2022-09-20T09:57:05.343Z,73.42
2022-09-20T09:59:32.090Z,72.47
2022-09-20T10:02:38.050Z,71.66
2022-09-20T10:05:18.668Z,71.65
2022-09-20T10:08:23.474Z,71.16
2022-09-20T10:11:27.228Z,70.32
2022-09-20T10:14:21.545Z,68.42
2022-09-20T10:17:21.197Z,68.02
2022-09-20T10:20:23.494Z,70.33
2022-09-20T10:23:34.439Z,69.73
2022-09-20T10:25:58.160Z,68.71
2022-09-20T10:28:48.949Z,67.16
2022-09-20T10:31:26.024Z,70.49
2022-09-20T10:34:20.785Z,67.11
2022-09-20T10:37:30.605Z,63.65
2022-09-20T10:40:16.499Z,66.34
2022-09-20T10:42:54.197Z,65.35
2022-09-20T10:46:08.659Z,61.52
2022-09-20T10:48:48.081Z,62.54
2022-09-20T10:52:03.793Z,61.91
2022-09-20T10:54:56.026Z,61.25
2022-09-20T10:57:46.580Z,63.85
2022-09-20T11:00:51.450Z,61.71
2022-09-20T11:03:43.491Z,60.07
2022-09-20T11:06:37.933Z,64.32
2022-09-20T11:09:13.160Z,65.69
2022-09-20T11:11:45.612Z,66.68
2022-09-20T11:14:47.276Z,65.20
2022-09-20T11:17:42.094Z,65.31
2022-09-20T11:20:27.007Z,66.05
2022-09-20T11:23:00.116Z,66.09
2022-09-20T11:25:56.653Z,62.89
2022-09-20T11:28:31.444Z,58.29
2022-09-20T11:31:07.673Z,61.82
2022-09-20T11:33:44.865Z,61.98
2022-09-20T11:36:46.898Z,55.67
2022-09-20T11:39:27.918Z,60.30
2022-09-20T11:41:57.572Z,61.02
2022-09-20T11:44:24.259Z,60.05
2022-09-20T11:47:12.507Z,60.69
2022-09-20T11:50:27.613Z,56.11
2022-09-20T11:53:12.999Z,58.72
2022-09-20T11:55:42.598Z,62.36
2022-09-20T11:58:15.122Z,61.80
2022-09-20T12:00:45.160Z,58.55
2022-09-20T12:03:36.554Z,59.94
2022-09-20T12:06:06.577Z,59.38
2022-09-20T12:08:40.459Z,59.13
2022-09-20T12:11:09.121Z,60.73
2022-09-20T12:13:39.037Z,63.88
2022-09-20T12:16:09.322Z,61.59
2022-09-20T12:18:38.531Z,61.03
2022-09-20T12:21:23.495Z,59.30
2022-09-20T12:23:53.316Z,61.11
2022-09-20T12:26:22.765Z,59.63
2022-09-20T12:28:52.584Z,56.79
2022-09-20T12:31:19.358Z,59.21
2022-09-20T12:34:24.273Z,60.46
2022-09-20T12:36:50.925Z,58.08
2022-09-20T12:39:25.211Z,57.06
2022-09-20T12:41:58.393Z,56.54
2022-09-20T12:44:31.224Z,53.54
2022-09-20T12:47:00.420Z,53.96
2022-09-20T12:49:33.888Z,54.26
2022-09-20T12:52:00.917Z,54.35
2022-09-20T12:54:28.345Z,57.19
2022-09-20T12:56:56.044Z,54.03
2022-09-20T12:59:26.749Z,55.62
2022-09-20T13:01:53.649Z,57.57
2022-09-20T13:04:54.473Z,55.16
2022-09-20T13:07:43.721Z,56.57
2022-09-20T13:10:23.215Z,57.42
2022-09-20T13:12:54.613Z,57.57
2022-09-20T13:15:23.061Z,56.72
2022-09-20T13:17:55.414Z,60.39
2022-09-20T13:20:29.604Z,58.34
2022-09-20T13:23:00.419Z,59.14
2022-09-20T13:25:28.022Z,58.61
2022-09-20T13:28:21.071Z,60.39
2022-09-20T13:30:48.298Z,59.67
2022-09-20T13:33:23.800Z,59.27
2022-09-20T13:35:54.230Z,61.27
2022-09-20T13:38:22.720Z,59.60
2022-09-20T13:40:51.315Z,60.89
2022-09-20T13:43:24.109Z,61.97
2022-09-20T13:46:00.038Z,58.60
2022-09-20T13:48:28.763Z,59.26
2022-09-20T13:50:56.746Z,61.41
2022-09-20T13:53:40.565Z,60.96
2022-09-20T13:56:20.122Z,61.20
2022-09-20T13:58:48.170Z,58.51
2022-09-20T14:01:27.804Z,58.47
2022-09-20T14:03:57.933Z,59.68
2022-09-20T14:06:25.537Z,60.28
2022-09-20T14:08:52.549Z,59.80
2022-09-20T14:11:23.213Z,61.09
2022-09-20T14:13:53.065Z,59.38
2022-09-20T14:16:23.218Z,58.80
2022-09-20T14:18:50.710Z,58.34
2022-09-20T14:21:25.481Z,62.07
2022-09-20T14:24:24.596Z,58.29
2022-09-20T14:27:13.264Z,57.87
2022-09-20T14:29:42.524Z,59.02
2022-09-20T14:32:21.138Z,61.82
2022-09-20T14:34:58.284Z,58.58
2022-09-20T14:37:45.500Z,59.86
2022-09-20T14:40:26.323Z,60.50
2022-09-20T14:42:56.729Z,61.51
2022-09-20T14:45:25.527Z,59.60
2022-09-20T14:48:15.666Z,57.69
2022-09-20T14:50:44.999Z,56.83
2022-09-20T14:53:11.508Z,58.55
2022-09-20T14:55:40.052Z,57.12
2022-09-20T14:58:12.181Z,58.22
2022-09-20T15:00:52.755Z,58.09
2022-09-20T15:03:27.171Z,58.74
2022-09-20T15:05:54.231Z,58.79
2022-09-20T15:08:20.884Z,57.52
2022-09-20T15:10:47.562Z,59.82
2022-09-20T15:13:14.635Z,60.06
2022-09-20T15:15:41.919Z,59.56
2022-09-20T15:18:20.252Z,56.49
2022-09-20T15:20:48.776Z,58.08
2022-09-20T15:23:15.722Z,58.84
2022-09-20T15:25:42.709Z,58.87
2022-09-20T15:28:14.011Z,57.27
2022-09-20T15:30:41.088Z,57.44
2022-09-20T15:33:09.669Z,56.20
2022-09-20T15:35:36.500Z,57.90
2022-09-20T15:38:03.693Z,60.43
2022-09-20T15:40:30.587Z,58.42
2022-09-20T15:42:57.396Z,60.12
2022-09-20T15:45:24.106Z,58.51
2022-09-20T15:47:50.708Z,59.38
2022-09-20T15:50:17.655Z,60.74
2022-09-20T15:52:44.505Z,59.67
2022-09-20T15:55:11.851Z,61.32
2022-09-20T15:57:38.542Z,59.49
2022-09-20T16:00:06.014Z,55.27
2022-09-20T16:02:35.429Z,55.85
2022-09-20T16:05:02.176Z,57.81
2022-09-20T16:07:28.998Z,59.55
2022-09-20T16:09:56.751Z,56.53
2022-09-20T16:12:25.266Z,57.45
2022-09-20T16:14:52.115Z,59.94
2022-09-20T16:17:19.403Z,59.48
2022-09-20T16:19:46.099Z,60.83
2022-09-20T16:22:12.717Z,62.03
2022-09-20T16:24:39.636Z,61.56
2022-09-20T16:27:07.865Z,63.70
2022-09-20T16:29:34.688Z,62.54
2022-09-20T16:32:01.941Z,63.75
2022-09-20T16:34:31.292Z,63.08
2022-09-20T16:37:03.110Z,62.73
2022-09-20T16:39:31.089Z,62.86
2022-09-20T16:42:02.473Z,61.60
2022-09-20T16:44:29.333Z,61.09
2022-09-20T16:46:55.891Z,60.86
2022-09-20T16:49:22.627Z,61.06
2022-09-20T16:51:49.222Z,61.08
2022-09-20T16:54:17.349Z,62.11
2022-09-20T16:56:46.589Z,60.89
2022-09-20T16:59:15.129Z,61.05
2022-09-20T17:01:42.885Z,61.16
2022-09-20T17:04:10.547Z,62.16
2022-09-20T17:06:38.110Z,62.19
2022-09-20T17:09:06.386Z,62.37
2022-09-20T17:11:39.834Z,62.95
2022-09-20T17:14:07.709Z,63.30
2022-09-20T17:16:36.583Z,63.12
2022-09-20T17:19:09.448Z,62.74
2022-09-20T17:21:38.344Z,62.77
2022-09-20T17:24:06.323Z,62.42
2022-09-20T17:26:40.954Z,62.67
2022-09-20T17:29:09.922Z,62.78
2022-09-20T17:31:39.421Z,63.61
2022-09-20T17:34:08.434Z,63.58
2022-09-20T17:36:43.653Z,63.81
2022-09-20T17:39:13.284Z,63.38
2022-09-20T17:41:42.179Z,63.85
2022-09-20T17:44:09.068Z,63.41
2022-09-20T17:46:37.570Z,63.24
2022-09-20T17:49:09.464Z,63.38
2022-09-20T17:51:42.430Z,62.99
2022-09-20T17:54:10.337Z,63.08
2022-09-20T17:56:36.917Z,63.72
2022-09-20T17:59:05.559Z,64.14
2022-09-20T18:01:35.312Z,64.82
2022-09-20T18:04:03.014Z,65.59
2022-09-20T18:06:32.389Z,66.16
2022-09-20T18:09:01.142Z,65.87
2022-09-20T18:11:39.554Z,65.88
2022-09-20T18:14:08.629Z,66.68
2022-09-20T18:16:35.335Z,67.31
2022-09-20T18:19:02.213Z,67.72
2022-09-20T18:21:31.377Z,67.87
2022-09-20T18:23:58.075Z,67.78
2022-09-20T18:26:27.740Z,67.82
2022-09-20T18:29:04.737Z,68.14
2022-09-20T18:31:43.062Z,68.11
2022-09-20T18:34:18.808Z,67.78
2022-09-20T18:36:51.016Z,67.66
2022-09-20T18:39:19.238Z,68.24
2022-09-20T18:41:45.902Z,68.43
2022-09-20T18:44:12.961Z,69.05
2022-09-20T18:46:39.905Z,69.39
2022-09-20T18:49:08.108Z,70.29
2022-09-20T18:51:39.451Z,70.20
2022-09-20T18:54:08.584Z,69.66
2022-09-20T18:56:36.625Z,69.25
2022-09-20T18:59:06.145Z,69.13
2022-09-20T19:01:51.270Z,72.00
2022-09-20T19:04:39.694Z,71.76
2022-09-20T19:07:29.850Z,71.41
2022-09-20T19:09:59.613Z,70.12
2022-09-20T19:12:44.989Z,70.22
2022-09-20T19:15:37.017Z,70.04
2022-09-20T19:18:40.062Z,70.70
2022-09-20T19:21:06.719Z,70.42
2022-09-20T19:23:50.498Z,69.85
2022-09-20T19:26:25.652Z,69.20
2022-09-20T19:29:00.227Z,68.85
2022-09-20T19:31:29.558Z,68.80
2022-09-20T19:33:58.790Z,69.23
2022-09-20T19:36:30.315Z,70.38
2022-09-20T19:39:12.070Z,70.40
2022-09-20T19:41:50.868Z,69.90
2022-09-20T19:44:42.916Z,69.97
2022-09-20T19:47:55.160Z,70.00
2022-09-20T19:50:52.514Z,70.19
2022-09-20T19:53:22.494Z,70.16
2022-09-20T19:55:56.027Z,69.34
2022-09-20T19:58:23.126Z,70.29
2022-09-20T20:00:50.228Z,70.34
2022-09-20T20:03:18.527Z,70.03
2022-09-20T20:05:56.501Z,70.76
2022-09-20T20:08:51.768Z,71.37
2022-09-20T20:11:37.354Z,70.89
2022-09-20T20:14:45.869Z,71.38
2022-09-20T20:17:21.971Z,71.18
2022-09-20T20:20:04.247Z,71.86
2022-09-20T20:23:01.901Z,71.96
2022-09-20T20:25:50.257Z,71.68
2022-09-20T20:28:17.098Z,72.05
2022-09-20T20:30:43.699Z,72.73
2022-09-20T20:33:17.376Z,72.77
2022-09-20T20:35:44.208Z,72.44
2022-09-20T20:38:10.974Z,71.84
2022-09-20T20:40:38.396Z,71.73
2022-09-20T20:43:05.301Z,71.89
2022-09-20T20:45:32.090Z,72.19
2022-09-20T20:47:59.308Z,72.73
2022-09-20T20:50:26.983Z,72.81
2022-09-20T20:52:56.878Z,72.29
2022-09-20T20:55:24.173Z,72.28
2022-09-20T20:57:55.471Z,72.25
2022-09-20T21:00:22.141Z,72.43
2022-09-20T21:02:48.764Z,72.30
2022-09-20T21:05:15.473Z,71.99
2022-09-20T21:07:42.028Z,72.20
2022-09-20T21:10:09.578Z,71.57
2022-09-20T21:12:36.143Z,71.74
2022-09-20T21:15:03.261Z,71.98
2022-09-20T21:17:35.255Z,72.20
2022-09-20T21:20:03.593Z,72.50
2022-09-20T21:22:30.264Z,71.80
2022-09-20T21:24:57.520Z,71.36
2022-09-20T21:27:24.156Z,71.48
2022-09-20T21:29:51.234Z,71.78
2022-09-20T21:32:18.066Z,71.91
2022-09-20T21:34:44.935Z,72.56
2022-09-20T21:37:11.819Z,72.33
2022-09-20T21:39:39.011Z,71.88
2022-09-20T21:42:05.757Z,71.96
2022-09-20T21:44:32.894Z,72.28
2022-09-20T21:47:05.699Z,73.03
2022-09-20T21:49:33.920Z,73.92
2022-09-20T21:52:00.660Z,73.82
2022-09-20T21:54:27.430Z,74.12
2022-09-20T21:56:57.263Z,75.62
2022-09-20T21:59:24.304Z,75.77
2022-09-20T22:01:50.983Z,74.96
2022-09-20T22:04:17.940Z,74.66
2022-09-20T22:06:45.344Z,74.33
2022-09-20T22:09:16.971Z,73.52
2022-09-20T22:11:47.557Z,73.33
2022-09-20T22:14:15.858Z,74.20
2022-09-20T22:16:44.034Z,73.56
2022-09-20T22:19:13.512Z,74.32
2022-09-20T22:21:42.911Z,74.13
2022-09-20T22:24:11.543Z,75.10
2022-09-20T22:26:40.750Z,75.26
2022-09-20T22:29:08.393Z,75.58
2022-09-20T22:31:38.122Z,75.62
2022-09-20T22:34:06.833Z,74.97
2022-09-20T22:36:36.517Z,75.44
2022-09-20T22:39:05.727Z,75.48
2022-09-20T22:41:33.036Z,76.87
2022-09-20T22:43:59.628Z,76.34
2022-09-20T22:46:29.310Z,76.35
2022-09-20T22:48:56.703Z,76.94
2022-09-20T22:51:26.845Z,77.82
2022-09-20T22:53:53.863Z,78.79
2022-09-20T22:56:28.537Z,79.06
2022-09-20T22:59:00.563Z,79.90
2022-09-20T23:01:29.954Z,80.11
2022-09-20T23:04:11.340Z,80.70
2022-09-20T23:06:40.831Z,81.07
2022-09-20T23:09:10.291Z,82.07
2022-09-20T23:11:38.275Z,81.34
2022-09-20T23:14:06.072Z,81.40
2022-09-20T23:16:36.763Z,82.03
2022-09-20T23:19:05.955Z,81.84
2022-09-20T23:21:34.122Z,81.83
2022-09-20T23:24:02.743Z,82.92
2022-09-20T23:26:31.912Z,83.23
2022-09-20T23:29:25.697Z,82.58
2022-09-20T23:31:52.522Z,82.46
2022-09-20T23:34:19.080Z,82.62
2022-09-20T23:36:46.612Z,82.10
2022-09-20T23:39:14.190Z,82.04
2022-09-20T23:41:40.968Z,82.06
2022-09-20T23:44:08.315Z,81.89
2022-09-20T23:46:35.409Z,82.41
2022-09-20T23:49:02.521Z,82.55
2022-09-20T23:51:29.358Z,83.78
2022-09-20T23:53:56.237Z,84.21
2022-09-20T23:56:23.293Z,83.25
2022-09-20T23:58:50.784Z,83.87
